Time;durP1;ratioP1;P1;durP2;ratioP2;P2;SDS_P1;SDS_P2;PMS_P1;PMS_P2;Temp;Humidity;BMP_temperature;BMP_pressure;BME280_temperature;BME280_humidity;BME280_pressure;Samples;Min_cycle;Max_cycle;Signal;HPM_P1;HPM_P2
2021/12/13 00:00:46;;;;;;;62.47;27.52;;;;;;;10.11;100.00;102352.59;2614468;36;20142;-62
2021/12/13 00:03:21;;;;;;;66.55;29.13;;;;;;;10.08;100.00;102358.16;2613358;36;20555;-62
2021/12/13 00:05:52;;;;;;;71.70;29.35;;;;;;;10.05;100.00;102357.50;2613712;36;20042;-62
2021/12/13 00:08:27;;;;;;;79.65;30.48;;;;;;;10.06;100.00;102356.56;2613513;36;20573;-61
2021/12/13 00:10:59;;;;;;;78.55;33.22;;;;;;;10.12;100.00;102361.53;2614239;36;20150;-62
2021/12/13 00:13:40;;;;;;;78.40;32.58;;;;;;;10.14;100.00;102363.19;2613632;36;20031;-61
2021/12/13 00:16:10;;;;;;;74.88;31.83;;;;;;;10.10;100.00;102358.94;2614541;31;20130;-61
2021/12/13 00:18:43;;;;;;;73.25;32.90;;;;;;;10.11;100.00;102368.72;2613788;31;20065;-62
2021/12/13 00:21:16;;;;;;;70.60;32.38;;;;;;;10.09;100.00;102365.28;2614944;36;20035;-62
2021/12/13 00:23:48;;;;;;;73.10;32.92;;;;;;;10.11;100.00;102374.09;2613979;36;20035;-62
2021/12/13 00:26:25;;;;;;;74.25;32.85;;;;;;;10.05;100.00;102374.50;2613531;31;20126;-62
2021/12/13 00:28:56;;;;;;;74.47;34.22;;;;;;;10.06;100.00;102381.63;2614362;36;20121;-62
2021/12/13 00:31:34;;;;;;;77.63;35.17;;;;;;;10.04;100.00;102383.56;2613294;36;20582;-62
2021/12/13 00:34:13;;;;;;;86.05;37.47;;;;;;;10.06;100.00;102381.63;2615143;36;20053;-62
2021/12/13 00:36:47;;;;;;;84.45;37.75;;;;;;;10.00;100.00;102373.94;2614671;36;20049;-62
2021/12/13 00:39:20;;;;;;;81.60;36.72;;;;;;;10.03;100.00;102381.81;2614387;36;20034;-61
2021/12/13 00:41:51;;;;;;;82.75;36.85;;;;;;;9.96;100.00;102381.31;2613168;36;20149;-62
2021/12/13 00:44:24;;;;;;;77.32;35.63;;;;;;;9.94;100.00;102377.88;2614408;36;20110;-62
2021/12/13 00:46:56;;;;;;;71.85;36.05;;;;;;;9.99;100.00;102380.25;2615124;36;20042;-61
2021/12/13 00:49:29;;;;;;;78.13;36.22;;;;;;;9.94;100.00;102385.09;2614079;36;20643;-62
2021/12/13 00:52:02;;;;;;;72.53;34.65;;;;;;;9.97;100.00;102384.88;2614309;36;20442;-62
2021/12/13 00:54:35;;;;;;;71.25;33.55;;;;;;;9.88;100.00;102393.50;2615239;31;20026;-62
2021/12/13 00:57:21;;;;;;;67.32;31.25;;;;;;;9.87;100.00;102387.28;2615295;36;20639;-62
2021/12/13 01:00:03;;;;;;;58.78;30.67;;;;;;;9.85;100.00;102388.31;2614667;36;20154;-61
2021/12/13 01:02:39;;;;;;;60.00;30.73;;;;;;;9.86;100.00;102395.44;2613803;36;20427;-62
2021/12/13 01:05:12;;;;;;;58.58;29.35;;;;;;;9.82;100.00;102395.63;2614100;36;20126;-61
2021/12/13 01:08:12;;;;;;;56.80;26.30;;;;;;;9.86;100.00;102384.66;2610609;36;20141;-62
2021/12/13 01:11:12;;;;;;;44.25;23.45;;;;;;;9.79;100.00;102394.94;2599979;36;20883;-62
2021/12/13 01:14:08;;;;;;;45.92;23.45;;;;;;;9.82;100.00;102401.00;2600482;36;20598;-62
2021/12/13 01:16:56;;;;;;;45.10;22.88;;;;;;;9.81;100.00;102404.63;2599752;36;20117;-62
2021/12/13 01:19:46;;;;;;;38.72;20.70;;;;;;;9.82;100.00;102406.38;2598974;36;20054;-62
2021/12/13 01:25:37;;;;;;;44.83;22.90;;;;;;;9.79;100.00;102414.63;2599392;36;20129;-62
2021/12/13 01:28:10;;;;;;;47.03;24.33;;;;;;;9.76;100.00;102417.50;2598547;36;20189;-62
2021/12/13 01:30:41;;;;;;;43.83;24.42;;;;;;;9.71;100.00;102424.13;2599231;36;20158;-62
2021/12/13 01:33:15;;;;;;;46.47;25.70;;;;;;;9.71;100.00;102424.13;2599961;36;20445;-62
2021/12/13 01:35:47;;;;;;;39.90;24.02;;;;;;;9.68;100.00;102416.25;2598786;36;20030;-61
2021/12/13 01:38:18;;;;;;;45.17;23.75;;;;;;;9.68;100.00;102421.63;2598430;36;20125;-61
2021/12/13 01:40:50;;;;;;;47.95;23.17;;;;;;;9.65;100.00;102419.97;2599818;36;20073;-61
2021/12/13 01:43:25;;;;;;;56.53;24.48;;;;;;;9.64;100.00;102428.97;2599209;36;20062;-62
2021/12/13 01:45:56;;;;;;;41.05;21.98;;;;;;;9.62;100.00;102425.53;2599992;36;20038;-61
2021/12/13 01:48:29;;;;;;;42.97;21.20;;;;;;;9.50;100.00;102426.28;2599198;36;20035;-61
2021/12/13 01:51:08;;;;;;;43.40;22.17;;;;;;;9.52;100.00;102427.03;2599771;36;20290;-61
2021/12/13 01:53:42;;;;;;;41.60;21.23;;;;;;;9.43;100.00;102431.97;2600716;36;20431;-62
2021/12/13 01:56:37;;;;;;;44.70;21.08;;;;;;;9.49;100.00;102427.22;2600149;36;20069;-61
2021/12/13 01:59:17;;;;;;;44.00;19.42;;;;;;;9.54;100.00;102425.09;2602445;36;20581;-62
2021/12/13 02:01:46;;;;;;;37.47;19.52;;;;;;;9.51;100.00;102422.59;2602866;36;20170;-61
2021/12/13 02:04:19;;;;;;;43.20;20.55;;;;;;;9.51;100.00;102422.59;2600923;36;20233;-61
2021/12/13 02:06:52;;;;;;;37.97;17.08;;;;;;;9.52;100.00;102435.09;2600327;36;20057;-62
2021/12/13 02:09:25;;;;;;;36.63;17.63;;;;;;;9.46;100.00;102429.13;2601354;36;20065;-62
2021/12/13 02:11:57;;;;;;;31.00;17.08;;;;;;;9.53;100.00;102431.47;2599253;36;20042;-62
2021/12/13 02:14:31;;;;;;;35.40;15.10;;;;;;;9.47;100.00;102425.47;2599059;36;20107;-62
2021/12/13 02:17:10;;;;;;;32.38;16.75;;;;;;;9.50;100.00;102418.22;2601917;36;20053;-62
2021/12/13 02:19:49;;;;;;;37.15;15.82;;;;;;;9.47;100.00;102428.16;2600502;36;20034;-63
2021/12/13 02:22:45;;;;;;;35.00;15.27;;;;;;;9.43;100.00;102429.28;2599953;36;20130;-62
2021/12/13 02:25:22;;;;;;;27.58;14.35;;;;;;;9.36;100.00;102427.06;2601052;31;20533;-62
2021/12/13 02:27:54;;;;;;;30.42;13.07;;;;;;;9.32;100.00;102425.50;2601066;36;20035;-61
2021/12/13 02:30:30;;;;;;;27.48;13.55;;;;;;;9.32;100.00;102423.72;2601218;36;20360;-61
2021/12/13 02:32:59;;;;;;;23.02;12.27;;;;;;;9.29;100.00;102421.19;2600619;36;20074;-62
2021/12/13 02:35:31;;;;;;;28.98;13.63;;;;;;;9.17;100.00;102436.22;2601094;36;20058;-61
2021/12/13 02:38:03;;;;;;;23.50;12.90;;;;;;;9.10;100.00;102434.81;2601052;31;20054;-61
2021/12/13 02:40:31;;;;;;;28.63;11.93;;;;;;;9.05;100.00;102437.75;2602121;36;20155;-62
2021/12/13 02:43:00;;;;;;;23.63;11.10;;;;;;;9.12;100.00;102439.13;2601006;36;20638;-62
2021/12/13 02:45:32;;;;;;;22.88;12.10;;;;;;;9.14;100.00;102446.25;2601717;36;20546;-62
2021/12/13 02:48:07;;;;;;;25.40;11.63;;;;;;;9.09;100.00;102444.69;2601063;36;20038;-62
2021/12/13 02:50:45;;;;;;;22.48;10.93;;;;;;;9.06;100.00;102452.91;2609860;36;20599;-62
2021/12/13 02:53:20;;;;;;;20.30;10.25;;;;;;;9.03;100.00;102442.34;2612843;36;21279;-61
2021/12/13 02:55:49;;;;;;;21.50;10.95;;;;;;;9.10;100.00;102443.75;2614955;36;20162;-63
2021/12/13 02:58:20;;;;;;;18.57;9.80;;;;;;;9.04;100.00;102435.16;2614309;36;20521;-62
2021/12/13 03:00:54;;;;;;;20.88;10.52;;;;;;;9.12;100.00;102444.50;2612638;36;20129;-62
2021/12/13 03:03:29;;;;;;;17.38;10.13;;;;;;;9.06;100.00;102442.16;2607448;36;20473;-62
2021/12/13 03:06:00;;;;;;;21.67;9.98;;;;;;;9.01;100.00;102429.94;2599189;36;20147;-62
2021/12/13 03:08:36;;;;;;;23.45;9.65;;;;;;;9.01;100.00;102425.47;2600210;31;20253;-62
2021/12/13 03:11:10;;;;;;;20.40;9.95;;;;;;;9.03;100.00;102428.91;2599845;36;20038;-62
2021/12/13 03:13:38;;;;;;;21.75;10.05;;;;;;;8.98;100.00;102425.66;2600071;36;20049;-63
2021/12/13 03:16:12;;;;;;;23.85;10.90;;;;;;;9.02;100.00;102419.13;2601112;36;20058;-61
2021/12/13 03:18:47;;;;;;;19.30;10.52;;;;;;;9.05;100.00;102421.63;2603275;36;20038;-61
2021/12/13 03:21:40;;;;;;;22.98;12.20;;;;;;;9.05;100.00;102416.25;2599263;36;20569;-61
2021/12/13 03:24:24;;;;;;;24.27;12.27;;;;;;;9.01;100.00;102419.22;2600137;36;20134;-61
2021/12/13 03:27:07;;;;;;;22.48;12.27;;;;;;;9.03;100.00;102423.56;2601000;36;20114;-61
2021/12/13 03:29:49;;;;;;;24.63;13.10;;;;;;;9.01;100.00;102428.16;2601312;31;20058;-62
2021/12/13 03:32:19;;;;;;;29.40;13.60;;;;;;;9.05;100.00;102426.16;2599059;36;20604;-63
2021/12/13 03:35:04;;;;;;;32.33;16.05;;;;;;;9.00;100.00;102426.41;2599129;36;20065;-62
2021/12/13 03:37:33;;;;;;;35.30;15.85;;;;;;;8.96;100.00;102430.22;2599600;31;20122;-63
2021/12/13 03:40:09;;;;;;;30.55;16.40;;;;;;;9.00;100.00;102422.88;2600301;36;20036;-62
2021/12/13 03:42:43;;;;;;;29.95;17.80;;;;;;;8.99;100.00;102424.66;2599737;36;20495;-62
2021/12/13 03:45:19;;;;;;;30.42;17.27;;;;;;;9.03;100.00;102417.31;2600616;36;20118;-62
2021/12/13 03:47:50;;;;;;;35.80;19.38;;;;;;;9.02;100.00;102426.31;2599755;36;20035;-62
2021/12/13 03:50:23;;;;;;;38.40;19.77;;;;;;;9.01;100.00;102417.41;2600149;36;20034;-62
2021/12/13 03:52:56;;;;;;;33.03;19.10;;;;;;;9.05;100.00;102421.63;2599479;36;20038;-62
2021/12/13 03:55:30;;;;;;;40.15;21.50;;;;;;;9.00;100.00;102423.72;2601174;36;21082;-62
2021/12/13 03:58:02;;;;;;;35.35;19.58;;;;;;;9.01;100.00;102428.16;2599671;36;20170;-62
2021/12/13 04:00:34;;;;;;;40.72;21.50;;;;;;;9.01;100.00;102425.47;2600325;36;20082;-63
2021/12/13 04:03:07;;;;;;;41.55;22.40;;;;;;;9.02;100.00;102427.19;2599377;36;20594;-63
2021/12/13 04:05:37;;;;;;;37.88;21.95;;;;;;;9.02;100.00;102432.56;2598971;36;20077;-62
2021/12/13 04:08:09;;;;;;;38.55;23.08;;;;;;;9.03;100.00;102422.69;2601486;36;20046;-62
2021/12/13 04:10:43;;;;;;;42.03;22.58;;;;;;;8.98;100.00;102420.28;2600513;36;20049;-62
2021/12/13 04:13:15;;;;;;;40.40;23.58;;;;;;;9.01;100.00;102419.22;2599936;36;20184;-62
2021/12/13 04:15:57;;;;;;;44.55;22.95;;;;;;;9.03;100.00;102420.00;2599770;36;20038;-62
2021/12/13 04:18:41;;;;;;;40.85;23.70;;;;;;;9.05;100.00;102416.25;2600071;36;20586;-62
2021/12/13 04:21:12;;;;;;;43.03;24.67;;;;;;;9.01;100.00;102420.09;2598701;36;20042;-62
2021/12/13 04:23:42;;;;;;;42.83;25.08;;;;;;;9.02;100.00;102413.75;2599270;36;20042;-62
2021/12/13 04:26:14;;;;;;;41.13;22.65;;;;;;;9.02;100.00;102413.75;2600340;36;20394;-62
2021/12/13 04:28:47;;;;;;;42.03;24.58;;;;;;;9.00;100.00;102422.88;2599517;36;20235;-62
2021/12/13 04:31:19;;;;;;;47.53;26.17;;;;;;;8.94;100.00;102418.72;2603877;36;20031;-63
2021/12/13 04:33:49;;;;;;;50.35;27.65;;;;;;;8.94;100.00;102419.56;2600074;36;20158;-63
2021/12/13 04:36:21;;;;;;;48.63;27.75;;;;;;;8.94;100.00;102413.34;2598915;36;20130;-62
2021/12/13 04:38:52;;;;;;;48.00;26.80;;;;;;;8.99;100.00;102424.66;2599520;36;20085;-62
2021/12/13 04:41:30;;;;;;;48.53;27.75;;;;;;;8.99;100.00;102422.00;2601938;36;20045;-62
2021/12/13 04:44:01;;;;;;;47.28;27.90;;;;;;;8.98;100.00;102424.75;2598449;36;20043;-62
2021/12/13 04:46:31;;;;;;;48.80;28.90;;;;;;;8.99;100.00;102424.66;2600386;31;20122;-62
2021/12/13 04:49:04;;;;;;;51.20;28.77;;;;;;;9.01;100.00;102424.59;2601481;36;21657;-62
2021/12/13 04:51:44;;;;;;;48.95;30.13;;;;;;;8.97;100.00;102421.22;2600376;31;20030;-62
2021/12/13 04:54:14;;;;;;;53.13;30.05;;;;;;;8.97;100.00;102428.41;2602819;36;20654;-62
2021/12/13 04:56:46;;;;;;;56.28;32.03;;;;;;;8.95;100.00;102425.78;2601539;36;20034;-62
2021/12/13 05:02:09;;;;;;;53.65;32.70;;;;;;;8.95;100.00;102431.16;2602980;36;21160;-62
2021/12/13 05:04:39;;;;;;;54.08;31.00;;;;;;;8.91;100.00;102425.13;2600050;36;20419;-63
2021/12/13 05:07:08;;;;;;;54.83;32.20;;;;;;;8.92;100.00;102431.34;2600072;36;20053;-62
2021/12/13 05:09:37;;;;;;;60.92;32.38;;;;;;;8.89;100.00;102432.41;2613811;36;20127;-62
2021/12/13 05:12:14;;;;;;;56.15;32.88;;;;;;;8.90;100.00;102439.47;2614437;36;20130;-62
2021/12/13 05:14:46;;;;;;;62.90;34.10;;;;;;;8.86;100.00;102431.69;2614292;36;20038;-62
2021/12/13 05:17:19;;;;;;;60.17;32.67;;;;;;;8.88;100.00;102435.19;2615020;36;20151;-62
2021/12/13 05:19:51;;;;;;;54.67;31.45;;;;;;;8.93;100.00;102430.41;2614567;36;20165;-63
2021/12/13 05:22:22;;;;;;;56.80;32.78;;;;;;;8.84;100.00;102423.72;2614776;36;20114;-62
2021/12/13 05:27:32;;;;;;;55.35;33.42;;;;;;;8.85;100.00;102430.84;2615674;47;20154;-63
2021/12/13 05:30:16;;;;;;;53.20;30.65;;;;;;;8.90;100.00;102433.25;2614613;36;20118;-62
2021/12/13 05:32:49;;;;;;;54.35;31.90;;;;;;;8.86;100.00;102437.94;2615618;31;20479;-62
2021/12/13 05:35:23;;;;;;;49.53;30.42;;;;;;;8.85;100.00;102451.44;2614034;36;20081;-62
2021/12/13 05:37:54;;;;;;;50.88;30.30;;;;;;;8.82;100.00;102447.13;2614831;36;20030;-62
2021/12/13 05:40:26;;;;;;;55.95;32.45;;;;;;;8.78;100.00;102440.19;2613605;36;20253;-62
2021/12/13 05:43:00;;;;;;;51.03;30.80;;;;;;;8.79;100.00;102446.41;2614793;36;20022;-62
2021/12/13 05:45:36;;;;;;;51.97;30.30;;;;;;;8.82;100.00;102454.28;2614041;36;20566;-62
2021/12/13 05:48:10;;;;;;;47.72;29.35;;;;;;;8.80;100.00;102448.16;2614912;36;20088;-63
2021/12/13 05:50:42;;;;;;;47.90;29.02;;;;;;;8.83;100.00;102443.47;2614630;36;20408;-63
2021/12/13 05:53:13;;;;;;;48.30;29.77;;;;;;;8.80;100.00;102442.78;2615016;36;20690;-63
2021/12/13 05:56:01;;;;;;;47.22;29.90;;;;;;;8.76;100.00;102436.72;2615070;36;20130;-62
2021/12/13 05:58:46;;;;;;;40.97;25.23;;;;;;;8.84;100.00;102444.34;2615353;36;20154;-62
2021/12/13 06:01:21;;;;;;;45.67;27.67;;;;;;;8.82;100.00;102452.50;2613967;36;20662;-62
2021/12/13 06:03:54;;;;;;;45.90;26.85;;;;;;;8.79;100.00;102449.09;2615381;36;20122;-62
2021/12/13 06:06:27;;;;;;;42.60;27.23;;;;;;;8.79;100.00;102446.41;2614519;31;20138;-62
2021/12/13 06:09:00;;;;;;;38.97;26.08;;;;;;;8.80;100.00;102448.16;2614603;36;20069;-62
2021/12/13 06:11:34;;;;;;;40.40;26.67;;;;;;;8.77;100.00;102451.88;2614889;36;20173;-62
2021/12/13 06:14:18;;;;;;;40.60;25.88;;;;;;;8.79;100.00;102454.47;2614289;36;20550;-62
2021/12/13 06:16:57;;;;;;;36.78;24.60;;;;;;;8.83;100.00;102453.34;2613571;36;20563;-62
2021/12/13 06:19:33;;;;;;;40.55;25.80;;;;;;;8.88;100.00;102462.03;2614701;36;20117;-63
2021/12/13 06:22:10;;;;;;;39.80;22.63;;;;;;;8.79;100.00;102458.03;2614276;36;20034;-62
2021/12/13 06:24:42;;;;;;;35.35;22.52;;;;;;;8.81;100.00;102458.81;2614755;31;20630;-62
2021/12/13 06:27:14;;;;;;;37.33;22.27;;;;;;;8.82;100.00;102457.84;2615200;36;20110;-62
2021/12/13 06:29:52;;;;;;;38.13;24.17;;;;;;;8.89;100.00;102463.75;2614696;36;20057;-62
2021/12/13 06:32:30;;;;;;;34.65;23.10;;;;;;;8.82;100.00;102467.72;2613524;36;20154;-62
2021/12/13 06:35:01;;;;;;;34.00;22.63;;;;;;;8.76;100.00;102468.94;2614601;36;20181;-62
2021/12/13 06:37:35;;;;;;;34.45;23.15;;;;;;;8.75;100.00;102468.06;2615534;36;20106;-63
2021/12/13 06:40:16;;;;;;;32.90;21.17;;;;;;;8.80;100.00;102464.25;2614475;36;20034;-62
2021/12/13 06:42:45;;;;;;;37.47;24.90;;;;;;;8.74;100.00;102468.16;2614928;36;20459;-62
2021/12/13 06:45:26;;;;;;;35.72;21.75;;;;;;;8.74;100.00;102468.16;2614574;36;20155;-62
2021/12/13 06:47:57;;;;;;;38.50;23.45;;;;;;;8.70;100.00;102471.94;2614700;36;20610;-62
2021/12/13 06:50:29;;;;;;;37.78;23.20;;;;;;;8.70;100.00;102475.50;2614911;36;20134;-62
2021/12/13 06:53:12;;;;;;;36.72;23.60;;;;;;;8.73;100.00;102469.97;2614831;36;20621;-62
2021/12/13 06:55:41;;;;;;;42.58;24.67;;;;;;;8.76;100.00;102471.63;2614886;36;20142;-62
2021/12/13 06:58:20;;;;;;;37.88;23.15;;;;;;;8.76;100.00;102459.06;2614217;31;20157;-62
2021/12/13 07:00:53;;;;;;;34.25;22.92;;;;;;;8.79;100.00;102474.16;2614113;31;20126;-62
2021/12/13 07:03:26;;;;;;;38.05;22.98;;;;;;;8.77;100.00;102466.19;2613567;36;20088;-62
2021/12/13 07:05:56;;;;;;;36.03;23.58;;;;;;;8.72;100.00;102470.06;2612731;36;20420;-62
2021/12/13 07:08:27;;;;;;;34.92;23.75;;;;;;;8.73;100.00;102472.66;2607475;31;20552;-62
2021/12/13 07:11:05;;;;;;;36.35;24.50;;;;;;;8.69;100.00;102483.66;2600373;36;20157;-62
2021/12/13 07:13:36;;;;;;;33.00;21.92;;;;;;;8.69;100.00;102486.34;2599708;36;20073;-62
2021/12/13 07:16:12;;;;;;;35.60;23.80;;;;;;;8.70;100.00;102483.56;2604013;36;20126;-62
2021/12/13 07:18:47;;;;;;;34.33;23.08;;;;;;;8.66;100.00;102490.03;2598551;36;20038;-63
2021/12/13 07:21:19;;;;;;;38.35;24.00;;;;;;;8.67;100.00;102481.06;2599921;31;20525;-63
2021/12/13 07:23:56;;;;;;;40.20;24.63;;;;;;;8.64;100.00;102478.50;2597132;31;20057;-62
2021/12/13 07:26:35;;;;;;;39.60;25.40;;;;;;;8.67;100.00;102488.22;2598671;36;20070;-62
2021/12/13 07:29:09;;;;;;;39.75;23.95;;;;;;;8.69;100.00;102489.03;2600139;36;20162;-62
2021/12/13 07:31:43;;;;;;;43.40;24.30;;;;;;;8.68;100.00;102488.13;2599135;36;20038;-61
2021/12/13 07:34:15;;;;;;;37.83;23.67;;;;;;;8.71;100.00;102495.16;2600013;36;20038;-62
2021/12/13 07:36:44;;;;;;;39.90;24.15;;;;;;;8.67;100.00;102496.28;2599054;36;20153;-62
2021/12/13 07:39:16;;;;;;;38.90;23.45;;;;;;;8.71;100.00;102498.69;2595387;36;20046;-62
2021/12/13 07:41:50;;;;;;;34.95;21.67;;;;;;;8.72;100.00;102489.69;2598061;31;20042;-63
2021/12/13 07:44:38;;;;;;;38.55;23.63;;;;;;;8.67;100.00;102491.78;2597898;36;20031;-62
2021/12/13 07:47:13;;;;;;;36.30;22.17;;;;;;;8.69;100.00;102492.56;2598247;36;20038;-63
2021/12/13 07:49:45;;;;;;;38.92;24.02;;;;;;;8.69;100.00;102497.94;2600796;31;20503;-62
2021/12/13 07:52:26;;;;;;;41.42;24.80;;;;;;;8.64;100.00;102505.34;2598973;36;20070;-62
2021/12/13 07:54:55;;;;;;;38.38;23.25;;;;;;;8.68;100.00;102511.44;2597611;36;20042;-63
2021/12/13 07:57:26;;;;;;;41.55;23.30;;;;;;;8.67;100.00;102515.94;2600038;36;20154;-63
2021/12/13 07:59:55;;;;;;;39.35;23.10;;;;;;;8.70;100.00;102517.56;2600789;36;20149;-62
2021/12/13 08:02:33;;;;;;;38.95;23.60;;;;;;;8.66;100.00;102522.25;2602793;36;20130;-62
2021/12/13 08:05:08;;;;;;;38.97;23.42;;;;;;;8.67;100.00;102518.63;2598223;36;20122;-62
2021/12/13 08:07:50;;;;;;;42.10;23.52;;;;;;;8.68;100.00;102524.84;2600504;31;22270;-63
2021/12/13 08:10:23;;;;;;;43.60;23.75;;;;;;;8.70;100.00;102518.47;2603235;36;20035;-62
2021/12/13 08:12:54;;;;;;;38.85;22.98;;;;;;;8.72;100.00;102513.00;2600224;36;20057;-62
2021/12/13 08:15:26;;;;;;;41.15;23.13;;;;;;;8.70;100.00;102515.78;2598479;36;20161;-62
2021/12/13 08:18:01;;;;;;;41.85;24.38;;;;;;;8.65;100.00;102525.88;2600386;36;20034;-62
2021/12/13 08:20:32;;;;;;;41.92;23.13;;;;;;;8.68;100.00;102531.09;2599766;31;20031;-63
2021/12/13 08:23:03;;;;;;;40.03;22.40;;;;;;;8.67;100.00;102532.06;2600806;36;20478;-62
2021/12/13 08:25:35;;;;;;;45.88;24.23;;;;;;;8.72;100.00;102529.97;2598501;36;20575;-62
2021/12/13 08:28:08;;;;;;;41.83;22.60;;;;;;;8.73;100.00;102534.41;2599892;36;20042;-63
2021/12/13 08:30:46;;;;;;;42.45;23.90;;;;;;;8.69;100.00;102530.13;2599298;36;20281;-63
2021/12/13 08:33:21;;;;;;;36.03;22.65;;;;;;;8.75;100.00;102527.13;2599593;36;20536;-62
2021/12/13 08:36:03;;;;;;;40.95;22.50;;;;;;;8.72;100.00;102531.81;2597041;36;20042;-62
2021/12/13 08:38:38;;;;;;;40.88;22.55;;;;;;;8.69;100.00;102522.09;2597566;36;20573;-61
2021/12/13 08:41:18;;;;;;;38.70;23.33;;;;;;;8.70;100.00;102522.94;2599591;36;20205;-61
2021/12/13 08:43:51;;;;;;;38.47;21.92;;;;;;;8.76;100.00;102528.88;2598691;31;20948;-61
2021/12/13 08:46:33;;;;;;;39.13;22.90;;;;;;;8.72;100.00;102531.81;2599200;36;20824;-62
2021/12/13 08:49:15;;;;;;;37.38;21.48;;;;;;;8.72;100.00;102531.81;2599722;36;20037;-62
2021/12/13 08:51:53;;;;;;;36.50;23.67;;;;;;;8.71;100.00;102538.97;2599433;36;20046;-63
2021/12/13 08:54:23;;;;;;;42.20;22.92;;;;;;;8.80;100.00;102536.75;2598442;36;20125;-61
2021/12/13 08:56:53;;;;;;;;;;;;;;;8.77;100.00;102543.13;2599758;36;20551;-61
2021/12/13 08:59:25;;;;;;;36.22;21.30;;;;;;;8.73;100.00;102550.50;2600277;36;19946;-62
2021/12/13 09:01:57;;;;;;;40.25;22.83;;;;;;;8.72;100.00;102548.75;2601997;36;20030;-61
2021/12/13 09:04:32;;;;;;;47.70;23.45;;;;;;;8.81;100.00;102557.28;2599544;36;20550;-62
2021/12/13 09:07:05;;;;;;;44.42;22.35;;;;;;;8.81;100.00;102551.91;2599758;36;20061;-61
2021/12/13 09:09:34;;;;;;;42.58;23.67;;;;;;;8.74;100.00;102557.59;2599176;36;20081;-62
2021/12/13 09:12:07;;;;;;;42.65;21.98;;;;;;;8.79;100.00;102561.84;2599004;31;20075;-63
2021/12/13 09:14:42;;;;;;;40.40;22.42;;;;;;;8.80;100.00;102568.97;2600530;36;20037;-62
2021/12/13 09:17:16;;;;;;;39.03;23.17;;;;;;;8.82;100.00;102575.09;2595947;36;20037;-62
2021/12/13 09:19:56;;;;;;;39.78;23.13;;;;;;;8.81;100.00;102568.88;2598877;36;20297;-62
2021/12/13 09:22:29;;;;;;;41.75;22.52;;;;;;;8.79;100.00;102575.28;2600531;36;20189;-62
2021/12/13 09:25:00;;;;;;;39.80;22.77;;;;;;;8.77;100.00;102578.03;2598703;36;20157;-62
2021/12/13 09:27:49;;;;;;;37.65;21.63;;;;;;;8.80;100.00;102577.03;2600310;36;20121;-62
2021/12/13 09:30:24;;;;;;;41.60;22.65;;;;;;;8.83;100.00;102587.59;2600313;36;20658;-62
2021/12/13 09:32:57;;;;;;;39.47;21.02;;;;;;;8.85;100.00;102586.56;2600831;36;20038;-61
2021/12/13 09:35:35;;;;;;;38.90;21.08;;;;;;;8.87;100.00;102594.53;2599001;36;20061;-62
2021/12/13 09:38:23;;;;;;;40.72;20.92;;;;;;;8.90;100.00;102591.69;2599169;36;20057;-62
2021/12/13 09:40:59;;;;;;;40.75;21.85;;;;;;;8.86;100.00;102606.22;2599201;36;20455;-62
2021/12/13 09:43:38;;;;;;;38.80;22.15;;;;;;;8.88;100.00;102609.72;2600963;36;20576;-61
2021/12/13 09:46:07;;;;;;;36.22;21.33;;;;;;;8.89;100.00;102615.00;2601236;36;20034;-61
2021/12/13 09:48:39;;;;;;;37.42;22.10;;;;;;;8.94;100.00;102604.00;2599620;36;20166;-62
2021/12/13 09:51:15;;;;;;;36.47;21.95;;;;;;;8.94;100.00;102612.06;2600956;31;20034;-62
2021/12/13 09:53:44;;;;;;;37.38;21.67;;;;;;;8.91;100.00;102617.59;2599828;31;20038;-62
2021/12/13 09:56:18;;;;;;;36.17;20.92;;;;;;;8.96;100.00;102620.91;2596693;31;20167;-63
2021/12/13 09:58:51;;;;;;;33.88;20.42;;;;;;;9.09;100.00;102626.47;2601093;36;20197;-62
2021/12/13 10:01:25;;;;;;;37.45;19.90;;;;;;;9.03;100.00;102632.19;2598612;36;20647;-62
2021/12/13 10:03:59;;;;;;;41.00;21.77;;;;;;;8.95;100.00;102624.50;2599472;36;20582;-63
2021/12/13 10:06:35;;;;;;;35.47;20.35;;;;;;;8.91;100.00;102622.97;2598694;36;20038;-62
2021/12/13 10:09:16;;;;;;;40.67;22.45;;;;;;;8.91;100.00;102614.91;2599826;36;20044;-62
2021/12/13 10:11:48;;;;;;;39.78;22.05;;;;;;;8.91;100.00;102615.78;2597785;36;20062;-63
2021/12/13 10:14:20;;;;;;;37.90;21.85;;;;;;;8.88;100.00;102618.63;2598148;36;20146;-63
2021/12/13 10:16:50;;;;;;;42.67;21.67;;;;;;;8.91;100.00;102613.09;2600696;36;20806;-63
2021/12/13 10:19:23;;;;;;;37.83;21.20;;;;;;;8.96;100.00;102611.97;2599292;36;20061;-62
2021/12/13 10:21:54;;;;;;;37.53;21.13;;;;;;;9.03;100.00;102611.56;2598914;36;20134;-63
2021/12/13 10:24:25;;;;;;;36.45;20.40;;;;;;;8.96;100.00;102611.97;2600018;31;20523;-62
2021/12/13 10:26:56;;;;;;;36.08;21.00;;;;;;;8.94;100.00;102612.06;2598431;36;21018;-63
2021/12/13 10:29:28;;;;;;;36.72;20.58;;;;;;;8.97;100.00;102605.66;2598278;36;20061;-62
2021/12/13 10:32:02;;;;;;;35.95;20.27;;;;;;;9.01;100.00;102612.59;2599976;36;20034;-62
2021/12/13 10:34:34;;;;;;;32.72;19.98;;;;;;;9.08;100.00;102609.50;2598519;36;20041;-62
2021/12/13 10:37:09;;;;;;;33.88;20.08;;;;;;;9.05;100.00;102609.66;2597716;36;20035;-61
2021/12/13 10:39:45;;;;;;;33.80;19.73;;;;;;;9.10;100.00;102618.34;2599396;36;20654;-61
2021/12/13 10:42:17;;;;;;;35.90;19.13;;;;;;;9.14;100.00;102610.97;2599470;36;20767;-61
2021/12/13 10:44:46;;;;;;;31.77;18.38;;;;;;;9.10;100.00;102609.41;2599221;36;20070;-61
2021/12/13 10:47:18;;;;;;;32.97;19.35;;;;;;;9.12;100.00;102607.50;2598936;36;20041;-61
2021/12/13 10:49:51;;;;;;;33.28;19.65;;;;;;;9.08;100.00;102608.63;2599226;36;20157;-62
2021/12/13 10:52:27;;;;;;;33.72;20.30;;;;;;;9.04;100.00;102613.31;2600345;36;20133;-61
2021/12/13 10:54:59;;;;;;;31.58;18.52;;;;;;;9.08;100.00;102620.25;2598177;36;20070;-62
2021/12/13 10:57:33;;;;;;;30.30;18.20;;;;;;;9.15;100.00;102618.09;2599622;31;20447;-61
2021/12/13 11:00:02;;;;;;;34.30;18.48;;;;;;;9.15;100.00;102611.84;2599617;36;20058;-62
2021/12/13 11:02:35;;;;;;;30.40;19.45;;;;;;;9.20;100.00;102610.66;2598773;36;20062;-62
2021/12/13 11:05:12;;;;;;;33.05;17.80;;;;;;;9.19;100.00;102608.06;2598166;36;20154;-61
2021/12/13 11:07:45;;;;;;;29.02;18.75;;;;;;;9.32;100.00;102605.53;2600498;36;20022;-63
2021/12/13 11:10:19;;;;;;;29.85;17.88;;;;;;;9.25;100.00;102610.41;2600113;36;20057;-61
2021/12/13 11:12:50;;;;;;;33.40;18.35;;;;;;;9.20;100.00;102596.34;2599503;31;20042;-61
2021/12/13 11:15:25;;;;;;;33.88;17.67;;;;;;;9.21;100.00;102598.06;2600559;36;20046;-61
2021/12/13 11:17:54;;;;;;;30.40;17.20;;;;;;;9.24;100.00;102595.22;2600008;36;20055;-62
2021/12/13 11:20:26;;;;;;;32.00;18.08;;;;;;;9.21;100.00;102593.56;2598798;36;20034;-62
2021/12/13 11:25:33;;;;;;;32.33;17.80;;;;;;;9.28;100.00;102594.09;2602828;36;21161;-62
2021/12/13 11:28:01;;;;;;;30.35;17.52;;;;;;;9.37;100.00;102593.59;2600914;36;20166;-62
2021/12/13 11:30:33;;;;;;;29.00;17.03;;;;;;;9.32;100.00;102593.00;2598244;36;20042;-62
2021/12/13 11:33:51;;;;;;;30.48;17.52;;;;;;;9.32;100.00;102597.47;2599331;36;20030;-62
2021/12/13 11:36:42;;;;;;;27.23;16.27;;;;;;;9.36;100.00;102597.22;2598152;36;20145;-62
2021/12/13 11:39:40;;;;;;;28.60;16.40;;;;;;;9.30;100.00;102592.19;2601117;36;20022;-62
2021/12/13 11:42:43;;;;;;;27.67;16.48;;;;;;;9.35;100.00;102586.56;2598433;36;20023;-63
2021/12/13 11:45:43;;;;;;;32.90;17.65;;;;;;;9.48;100.00;102590.28;2599686;36;20039;-63
2021/12/13 11:48:36;;;;;;;29.85;17.52;;;;;;;9.39;100.00;102586.31;2599066;31;20165;-62
2021/12/13 11:51:22;;;;;;;29.52;16.85;;;;;;;9.43;100.00;102593.22;2599137;36;20034;-62
2021/12/13 11:54:30;;;;;;;29.50;17.30;;;;;;;9.36;100.00;102585.59;2597671;36;20035;-62
2021/12/13 11:57:49;;;;;;;24.92;15.45;;;;;;;9.47;100.00;102583.19;2598950;36;20042;-63